Time;durP1;ratioP1;P1;durP2;ratioP2;P2;SDS_P1;SDS_P2;PMS_P1;PMS_P2;Temp;Humidity;BMP_temperature;BMP_pressure;BME280_temperature;BME280_humidity;BME280_pressure;Samples;Min_cycle;Max_cycle;Signal;HPM_P1;HPM_P2
2022/01/02 00:02:17;;;;;;;3.87;2.07;;;6.10;99.90;;;;;;5078761;28;20200;-70
2022/01/02 00:04:50;;;;;;;3.43;1.97;;;6.10;99.90;;;;;;5092676;28;20204;-69
2022/01/02 00:07:17;;;;;;;3.27;1.90;;;6.10;99.90;;;;;;5092938;28;20288;-70
2022/01/02 00:09:47;;;;;;;3.17;2.33;;;6.10;99.90;;;;;;5092741;28;20666;-70
2022/01/02 00:12:17;;;;;;;3.87;2.50;;;6.10;99.90;;;;;;5096470;28;20200;-72
2022/01/02 00:14:46;;;;;;;4.40;2.40;;;6.10;99.90;;;;;;5090348;28;20263;-72
2022/01/02 00:17:16;;;;;;;4.70;2.90;;;6.10;99.90;;;;;;5092826;28;20289;-70
2022/01/02 00:19:51;;;;;;;3.97;2.30;;;6.10;99.90;;;;;;5092457;28;20293;-70
2022/01/02 00:22:19;;;;;;;4.17;2.67;;;6.20;99.90;;;;;;5093448;28;20291;-69
2022/01/02 00:24:48;;;;;;;5.50;2.63;;;6.20;99.90;;;;;;5092575;28;20299;-70
2022/01/02 00:27:16;;;;;;;4.07;2.60;;;6.20;99.90;;;;;;5091279;28;20716;-70
2022/01/02 00:29:43;;;;;;;4.60;2.60;;;6.20;99.90;;;;;;5092252;28;20236;-71
2022/01/02 00:32:12;;;;;;;4.07;2.73;;;6.20;99.90;;;;;;5092584;28;20259;-70
2022/01/02 00:34:40;;;;;;;4.40;3.03;;;6.20;99.90;;;;;;5092409;28;20315;-70
2022/01/02 00:37:07;;;;;;;4.43;2.90;;;6.20;99.90;;;;;;5092335;28;20215;-72
2022/01/02 00:39:35;;;;;;;3.53;2.60;;;6.10;99.90;;;;;;5087080;28;20205;-70
2022/01/02 00:42:07;;;;;;;4.07;2.43;;;6.10;99.90;;;;;;5083415;28;20215;-70
2022/01/02 00:44:46;;;;;;;4.70;2.90;;;6.10;99.90;;;;;;5092107;28;20197;-70
2022/01/02 00:47:20;;;;;;;4.07;2.57;;;6.10;99.90;;;;;;5079841;28;20201;-72
2022/01/02 00:50:01;;;;;;;4.27;2.90;;;6.00;99.90;;;;;;5091624;28;20611;-70
2022/01/02 00:52:28;;;;;;;4.20;2.97;;;6.00;99.90;;;;;;5092390;28;20567;-70
2022/01/02 00:54:57;;;;;;;3.17;2.43;;;5.90;99.90;;;;;;5098211;28;20234;-69
2022/01/02 00:57:33;;;;;;;3.10;2.50;;;6.00;99.90;;;;;;5089962;28;20251;-68
2022/01/02 01:00:07;;;;;;;3.33;2.40;;;5.90;99.90;;;;;;5090517;28;20208;-70
2022/01/02 01:02:38;;;;;;;5.23;2.73;;;6.00;99.90;;;;;;5091611;28;20214;-71
2022/01/02 01:05:08;;;;;;;3.27;2.57;;;6.00;99.90;;;;;;5093452;28;20193;-70
2022/01/02 01:07:37;;;;;;;6.00;2.80;;;6.00;99.90;;;;;;5093892;28;20653;-70
2022/01/02 01:10:07;;;;;;;2.73;2.43;;;6.00;99.90;;;;;;5103797;28;20649;-70
2022/01/02 01:12:35;;;;;;;3.73;2.73;;;6.10;99.90;;;;;;5094491;28;20201;-70
2022/01/02 01:15:05;;;;;;;4.10;2.23;;;6.10;99.90;;;;;;5094258;28;20700;-70
2022/01/02 01:17:32;;;;;;;2.87;2.30;;;6.10;99.90;;;;;;5093216;28;20211;-70
2022/01/02 01:19:59;;;;;;;3.60;2.17;;;6.10;99.90;;;;;;5094149;28;20204;-70
2022/01/02 01:22:26;;;;;;;4.77;2.40;;;6.10;99.90;;;;;;5093503;28;20300;-70
2022/01/02 01:24:53;;;;;;;5.23;2.40;;;6.00;99.90;;;;;;5083437;28;20197;-70
2022/01/02 01:27:20;;;;;;;4.57;2.63;;;6.00;99.90;;;;;;5092941;28;20222;-69
2022/01/02 01:29:48;;;;;;;3.23;2.20;;;6.10;99.90;;;;;;5092639;28;20271;-71
2022/01/02 01:32:15;;;;;;;3.97;2.50;;;6.10;99.90;;;;;;5092324;28;20218;-71
2022/01/02 01:34:42;;;;;;;2.97;2.63;;;6.10;99.90;;;;;;5091259;28;20539;-70
2022/01/02 01:37:08;;;;;;;3.30;2.60;;;6.00;99.90;;;;;;5099850;28;20223;-71
2022/01/02 01:39:35;;;;;;;5.37;3.50;;;6.00;99.90;;;;;;5092790;28;20236;-70
2022/01/02 01:42:08;;;;;;;3.67;2.80;;;6.10;99.90;;;;;;5091794;28;20232;-69
2022/01/02 01:45:04;;;;;;;4.87;2.50;;;6.10;99.90;;;;;;5092284;28;20201;-69
2022/01/02 01:47:32;;;;;;;3.70;2.60;;;6.00;99.90;;;;;;5092356;28;20223;-71
2022/01/02 01:49:59;;;;;;;3.33;2.57;;;6.00;99.90;;;;;;5102145;28;20546;-70
2022/01/02 01:52:26;;;;;;;4.33;2.93;;;6.00;99.90;;;;;;5092713;28;20200;-69
2022/01/02 01:54:53;;;;;;;4.03;2.53;;;6.00;99.90;;;;;;5091485;28;20228;-69
2022/01/02 01:57:20;;;;;;;3.53;2.03;;;6.00;99.90;;;;;;5092890;28;20231;-71
2022/01/02 01:59:48;;;;;;;4.03;2.27;;;5.90;99.90;;;;;;5091970;28;20215;-70
2022/01/02 02:02:15;;;;;;;3.30;2.33;;;5.90;99.90;;;;;;5092707;28;20258;-70
2022/01/02 02:04:44;;;;;;;3.17;2.57;;;5.90;99.90;;;;;;5093689;28;20271;-70
2022/01/02 02:07:10;;;;;;;2.60;2.40;;;5.90;99.90;;;;;;5092123;28;20200;-69
2022/01/02 02:09:52;;;;;;;5.33;2.70;;;5.80;99.90;;;;;;5092214;28;20304;-69
2022/01/02 02:12:19;;;;;;;4.73;2.80;;;5.80;99.90;;;;;;5091293;28;20196;-69
2022/01/02 02:14:46;;;;;;;4.20;2.83;;;5.70;99.90;;;;;;5092186;28;20288;-70
2022/01/02 02:17:13;;;;;;;5.00;3.10;;;5.70;99.90;;;;;;5092357;28;20204;-69
2022/01/02 02:19:40;;;;;;;4.77;2.80;;;5.60;99.90;;;;;;5092385;28;20220;-69
2022/01/02 02:22:08;;;;;;;4.27;2.83;;;5.60;99.90;;;;;;5091802;28;20209;-68
2022/01/02 02:24:35;;;;;;;4.47;2.70;;;5.60;99.90;;;;;;5091196;28;20201;-70
2022/01/02 02:27:02;;;;;;;3.57;2.63;;;5.60;99.90;;;;;;5091759;28;20250;-69
2022/01/02 02:29:29;;;;;;;4.27;2.83;;;5.60;99.90;;;;;;5091735;28;20228;-69
2022/01/02 02:31:56;;;;;;;2.80;2.10;;;5.60;99.90;;;;;;5091003;28;20399;-68
2022/01/02 02:34:23;;;;;;;5.60;2.70;;;5.70;99.90;;;;;;5100415;28;20242;-69
2022/01/02 02:36:50;;;;;;;5.27;3.23;;;5.70;99.90;;;;;;5092431;28;20299;-69
2022/01/02 02:39:18;;;;;;;3.47;2.70;;;5.70;99.90;;;;;;5091373;28;20292;-69
2022/01/02 02:41:45;;;;;;;3.67;2.70;;;5.70;99.90;;;;;;5091628;28;20243;-69
2022/01/02 02:44:21;;;;;;;3.57;2.83;;;5.70;99.90;;;;;;5091723;28;20212;-69
2022/01/02 02:49:32;;;;;;;5.23;2.90;;;5.80;99.90;;;;;;5090590;28;20196;-68
2022/01/02 02:52:04;;;;;;;4.63;3.67;;;5.80;99.90;;;;;;5095024;28;20196;-69
2022/01/02 02:54:33;;;;;;;3.70;2.83;;;5.80;99.90;;;;;;5095203;28;20223;-68
2022/01/02 02:57:01;;;;;;;6.00;3.27;;;5.80;99.90;;;;;;5094843;28;20239;-68
2022/01/02 02:59:30;;;;;;;4.50;3.20;;;5.80;99.90;;;;;;5095626;28;20218;-69
2022/01/02 03:01:57;;;;;;;5.70;2.90;;;5.80;99.90;;;;;;5096669;28;20215;-68
2022/01/02 03:04:24;;;;;;;4.73;2.90;;;5.80;99.90;;;;;;5108410;28;20206;-69
2022/01/02 03:06:52;;;;;;;4.13;3.20;;;5.80;99.90;;;;;;5099456;28;20630;-68
2022/01/02 03:09:36;;;;;;;5.13;3.50;;;5.90;99.90;;;;;;5095378;28;20295;-69
2022/01/02 03:12:05;;;;;;;5.93;2.90;;;5.90;99.90;;;;;;5095634;28;20295;-68
2022/01/02 03:14:32;;;;;;;6.23;3.20;;;5.90;99.90;;;;;;5094139;28;20232;-69
2022/01/02 03:16:59;;;;;;;4.40;3.03;;;5.90;99.90;;;;;;5095115;28;20554;-71
2022/01/02 03:19:26;;;;;;;5.50;2.77;;;5.90;99.90;;;;;;5107572;28;20543;-71
2022/01/02 03:21:54;;;;;;;5.10;3.53;;;5.90;99.90;;;;;;5094352;28;20271;-69
2022/01/02 03:24:21;;;;;;;6.57;3.43;;;5.90;99.90;;;;;;5095016;28;20676;-68
2022/01/02 03:26:47;;;;;;;4.20;2.87;;;5.90;99.90;;;;;;5095041;28;20188;-69
2022/01/02 03:29:16;;;;;;;4.53;3.13;;;5.90;99.90;;;;;;5093307;28;20228;-69
2022/01/02 03:31:43;;;;;;;6.27;3.17;;;5.90;99.90;;;;;;5096087;28;20213;-68
2022/01/02 03:34:09;;;;;;;4.47;2.87;;;5.80;99.90;;;;;;5097016;28;20329;-69
2022/01/02 03:36:36;;;;;;;4.57;3.20;;;5.80;99.90;;;;;;5095608;28;20244;-69
2022/01/02 03:39:04;;;;;;;4.30;2.93;;;5.80;99.90;;;;;;5095803;28;20208;-68
2022/01/02 03:41:31;;;;;;;6.07;3.73;;;5.80;99.90;;;;;;5095678;28;20570;-70
2022/01/02 03:43:59;;;;;;;5.30;3.57;;;5.80;99.90;;;;;;5095811;28;20213;-69
2022/01/02 03:46:27;;;;;;;6.50;3.67;;;5.80;99.90;;;;;;5095109;28;20204;-69
2022/01/02 03:48:54;;;;;;;5.67;3.33;;;5.80;99.90;;;;;;5094952;28;20223;-68
2022/01/02 03:51:21;;;;;;;7.57;3.83;;;5.80;99.90;;;;;;5094966;28;20220;-69
2022/01/02 03:53:48;;;;;;;7.93;3.77;;;5.80;99.90;;;;;;5094635;28;20657;-69
2022/01/02 03:56:14;;;;;;;4.43;3.53;;;5.80;99.90;;;;;;5095313;28;20752;-68
2022/01/02 03:58:41;;;;;;;4.63;3.83;;;5.80;99.90;;;;;;5095287;28;20541;-69
2022/01/02 04:01:08;;;;;;;4.53;3.47;;;5.80;99.90;;;;;;5094988;28;20215;-69
2022/01/02 04:03:36;;;;;;;6.13;3.30;;;5.70;99.90;;;;;;5106735;28;20197;-68
2022/01/02 04:06:03;;;;;;;9.03;4.33;;;5.70;99.90;;;;;;5094808;28;20211;-70
2022/01/02 04:08:30;;;;;;;7.90;3.83;;;5.70;99.90;;;;;;5094835;28;20209;-68
2022/01/02 04:10:57;;;;;;;4.03;3.43;;;5.60;99.90;;;;;;5094356;28;20208;-69
2022/01/02 04:13:23;;;;;;;5.50;3.87;;;5.60;99.90;;;;;;5093410;28;20205;-69
2022/01/02 04:15:50;;;;;;;7.13;4.13;;;5.60;99.90;;;;;;5094223;28;20224;-69
2022/01/02 04:18:17;;;;;;;6.50;4.30;;;5.60;99.90;;;;;;5094997;28;20212;-69
2022/01/02 04:20:48;;;;;;;6.43;4.23;;;5.60;99.90;;;;;;5094345;28;20208;-70
2022/01/02 04:23:15;;;;;;;5.87;3.87;;;5.60;99.90;;;;;;5095321;28;21015;-68
2022/01/02 04:25:42;;;;;;;7.67;3.97;;;5.60;99.90;;;;;;5091931;28;20197;-69
2022/01/02 04:28:09;;;;;;;7.17;3.90;;;5.60;99.90;;;;;;5083358;28;20665;-69
2022/01/02 04:30:36;;;;;;;6.60;4.20;;;5.60;99.90;;;;;;5094269;28;20204;-69
2022/01/02 04:33:03;;;;;;;5.53;3.80;;;5.60;99.90;;;;;;5100583;28;20212;-70
2022/01/02 04:35:30;;;;;;;5.83;4.20;;;5.60;99.90;;;;;;5093883;28;20247;-69
2022/01/02 04:37:58;;;;;;;5.23;3.60;;;5.60;99.90;;;;;;5094250;28;20649;-70
2022/01/02 04:40:25;;;;;;;5.63;3.50;;;5.60;99.90;;;;;;5093382;28;20208;-69
2022/01/02 04:42:52;;;;;;;7.63;4.13;;;5.60;99.90;;;;;;5093347;28;20208;-69
2022/01/02 04:45:18;;;;;;;7.57;4.03;;;5.60;99.90;;;;;;5093802;28;20761;-70
2022/01/02 04:47:45;;;;;;;4.60;3.70;;;5.50;99.90;;;;;;5093059;28;20196;-69
2022/01/02 04:50:12;;;;;;;7.97;3.90;;;5.50;99.90;;;;;;5093071;28;20576;-69
2022/01/02 04:52:39;;;;;;;6.93;4.20;;;5.50;99.90;;;;;;5093537;28;20212;-69
2022/01/02 04:55:08;;;;;;;6.90;3.77;;;5.50;99.90;;;;;;5092103;28;20219;-69
2022/01/02 04:57:35;;;;;;;5.03;3.70;;;5.50;99.90;;;;;;5093359;28;20228;-68
2022/01/02 05:00:02;;;;;;;5.67;4.30;;;5.50;99.90;;;;;;5092624;28;20204;-69
2022/01/02 05:02:29;;;;;;;6.83;3.93;;;5.50;99.90;;;;;;5092799;28;20204;-68
2022/01/02 05:04:55;;;;;;;6.87;3.63;;;5.50;99.90;;;;;;5092898;28;20226;-69
2022/01/02 05:07:22;;;;;;;4.80;3.50;;;5.50;99.90;;;;;;5093299;28;20207;-68
2022/01/02 05:09:49;;;;;;;4.80;4.10;;;5.50;99.90;;;;;;5092905;28;20204;-68
2022/01/02 05:12:17;;;;;;;6.00;4.13;;;5.50;99.90;;;;;;5092462;28;20201;-69
2022/01/02 05:14:44;;;;;;;6.90;4.20;;;5.60;99.90;;;;;;5093263;28;20685;-69
2022/01/02 05:17:11;;;;;;;6.97;4.03;;;5.60;99.90;;;;;;5093060;28;20201;-68
2022/01/02 05:19:38;;;;;;;5.57;4.13;;;5.60;99.90;;;;;;5094046;28;20303;-69
2022/01/02 05:22:05;;;;;;;7.03;4.57;;;5.60;99.90;;;;;;5101212;28;20200;-68
2022/01/02 05:24:32;;;;;;;7.40;3.93;;;5.60;99.90;;;;;;5093899;28;20219;-69
2022/01/02 05:26:59;;;;;;;7.07;4.13;;;5.70;99.90;;;;;;5092890;28;20204;-69
2022/01/02 05:29:27;;;;;;;8.30;4.50;;;5.70;99.90;;;;;;5092680;28;20238;-68
2022/01/02 05:31:54;;;;;;;6.60;4.37;;;5.70;99.90;;;;;;5092829;28;20213;-69
2022/01/02 05:34:21;;;;;;;9.60;4.53;;;5.70;99.90;;;;;;5091975;28;20638;-69
2022/01/02 05:36:49;;;;;;;8.33;4.60;;;5.70;99.90;;;;;;5100935;28;20208;-68
2022/01/02 05:39:17;;;;;;;7.60;4.93;;;5.70;99.90;;;;;;5095715;28;20216;-68
2022/01/02 05:41:45;;;;;;;6.47;4.90;;;5.70;99.90;;;;;;5092833;28;20500;-68
2022/01/02 05:44:11;;;;;;;7.90;5.03;;;5.70;99.90;;;;;;5092758;28;20200;-68
2022/01/02 05:46:40;;;;;;;8.60;5.40;;;5.70;99.90;;;;;;5091770;28;20208;-69
2022/01/02 05:49:07;;;;;;;8.17;5.43;;;5.70;99.90;;;;;;5092552;28;20209;-68
2022/01/02 05:51:34;;;;;;;7.57;5.53;;;5.70;99.90;;;;;;5092043;28;20206;-69
2022/01/02 05:54:00;;;;;;;9.27;6.40;;;5.70;99.90;;;;;;5093142;28;20208;-68
2022/01/02 05:56:28;;;;;;;8.30;6.10;;;5.70;99.90;;;;;;5092448;28;20232;-69
2022/01/02 05:58:54;;;;;;;10.70;6.10;;;5.70;99.90;;;;;;5092640;28;20208;-68
2022/01/02 06:01:21;;;;;;;8.03;6.30;;;5.70;99.90;;;;;;5096406;28;20208;-68
2022/01/02 06:03:49;;;;;;;10.83;6.80;;;5.60;99.90;;;;;;5092760;28;20213;-69
2022/01/02 06:06:16;;;;;;;10.17;6.90;;;5.60;99.90;;;;;;5093258;28;20884;-69
2022/01/02 06:08:43;;;;;;;10.33;6.90;;;5.60;99.90;;;;;;5092062;28;20209;-69
2022/01/02 06:11:10;;;;;;;10.20;6.67;;;5.60;99.90;;;;;;5083199;28;20638;-69
2022/01/02 06:13:38;;;;;;;12.23;7.23;;;5.70;99.90;;;;;;5087941;28;20238;-68
2022/01/02 06:16:04;;;;;;;12.77;7.10;;;5.70;99.90;;;;;;5091545;28;20224;-69
2022/01/02 06:18:31;;;;;;;14.33;7.90;;;5.70;99.90;;;;;;5091804;28;20210;-69
2022/01/02 06:20:59;;;;;;;11.63;7.10;;;5.70;99.90;;;;;;5091113;28;20740;-69
2022/01/02 06:23:26;;;;;;;10.17;7.43;;;5.70;99.90;;;;;;5092551;28;20641;-69
2022/01/02 06:25:53;;;;;;;13.30;6.60;;;5.70;99.90;;;;;;5096344;28;20200;-68
2022/01/02 06:28:20;;;;;;;11.37;7.33;;;5.70;99.90;;;;;;5096111;28;20292;-69
2022/01/02 06:30:47;;;;;;;11.80;7.13;;;5.70;99.90;;;;;;5096649;28;20197;-69
2022/01/02 06:33:14;;;;;;;13.57;6.67;;;5.70;99.90;;;;;;5096822;28;20208;-69
2022/01/02 06:35:41;;;;;;;13.87;7.40;;;5.70;99.90;;;;;;5096469;28;20224;-69
2022/01/02 06:38:13;;;;;;;12.83;8.10;;;5.70;99.90;;;;;;5096560;28;20685;-68
2022/01/02 06:40:41;;;;;;;12.13;7.43;;;5.70;99.90;;;;;;5096474;28;20205;-69
2022/01/02 06:43:08;;;;;;;11.03;7.97;;;5.70;99.90;;;;;;5095825;28;20209;-69
2022/01/02 06:45:35;;;;;;;14.90;7.93;;;5.70;99.90;;;;;;5109069;28;20204;-69
2022/01/02 06:48:03;;;;;;;12.70;8.77;;;5.70;99.90;;;;;;5096980;28;20200;-69
2022/01/02 06:50:30;;;;;;;11.10;7.33;;;5.70;99.90;;;;;;5095275;28;20205;-69
2022/01/02 06:52:56;;;;;;;13.93;8.40;;;5.70;99.90;;;;;;5096057;28;20231;-69
2022/01/02 06:55:25;;;;;;;14.40;8.27;;;5.80;99.90;;;;;;5095564;28;20212;-69
2022/01/02 06:57:52;;;;;;;12.93;8.37;;;5.80;99.90;;;;;;5095308;28;20555;-69
2022/01/02 07:00:18;;;;;;;15.03;8.73;;;5.90;99.90;;;;;;5102070;28;20203;-69
2022/01/02 07:02:45;;;;;;;12.30;8.07;;;5.80;99.90;;;;;;5094626;28;20205;-69
2022/01/02 07:05:12;;;;;;;14.37;8.33;;;5.80;99.90;;;;;;5094884;28;20680;-68
2022/01/02 07:07:43;;;;;;;12.87;7.80;;;5.80;99.90;;;;;;5095663;28;20215;-69
2022/01/02 07:10:10;;;;;;;16.37;9.17;;;5.90;99.90;;;;;;5094890;28;20580;-68
2022/01/02 07:12:39;;;;;;;16.67;9.43;;;5.90;99.90;;;;;;5095050;28;20558;-69
2022/01/02 07:15:08;;;;;;;15.23;8.57;;;5.90;99.90;;;;;;5095286;28;20204;-69
2022/01/02 07:17:35;;;;;;;15.87;8.57;;;5.90;99.90;;;;;;5082011;28;20316;-70
2022/01/02 07:20:02;;;;;;;14.50;9.30;;;5.90;99.90;;;;;;5095629;28;20637;-69
2022/01/02 07:22:28;;;;;;;16.47;9.07;;;5.90;99.90;;;;;;5095172;28;20207;-70
2022/01/02 07:24:55;;;;;;;18.07;9.97;;;6.00;99.90;;;;;;5095684;28;20575;-68
2022/01/02 07:27:22;;;;;;;18.13;9.00;;;5.90;99.90;;;;;;5095165;28;20209;-68
2022/01/02 07:29:51;;;;;;;14.53;9.47;;;6.00;99.90;;;;;;5094750;28;20240;-70
2022/01/02 07:32:18;;;;;;;17.00;9.27;;;6.00;99.90;;;;;;5094378;28;20212;-69
2022/01/02 07:34:45;;;;;;;20.27;10.10;;;6.00;99.90;;;;;;5094340;28;20217;-69
2022/01/02 07:37:12;;;;;;;17.00;9.50;;;6.00;99.90;;;;;;5094262;28;20570;-69
2022/01/02 07:39:39;;;;;;;18.27;10.47;;;6.00;99.90;;;;;;5095269;28;20303;-68
2022/01/02 07:42:06;;;;;;;18.97;10.23;;;6.00;99.90;;;;;;5094716;28;20201;-68
2022/01/02 07:44:36;;;;;;;18.77;10.50;;;6.00;99.90;;;;;;5094235;28;20204;-68
2022/01/02 07:47:05;;;;;;;19.40;10.23;;;6.00;99.90;;;;;;5094122;28;20812;-68
2022/01/02 07:49:32;;;;;;;19.13;11.47;;;6.00;99.90;;;;;;5094791;28;20219;-68
2022/01/02 07:51:59;;;;;;;19.13;10.30;;;6.10;99.90;;;;;;5094600;28;20587;-69
2022/01/02 07:54:26;;;;;;;18.17;9.90;;;6.10;99.90;;;;;;5094932;28;20670;-68
2022/01/02 07:56:53;;;;;;;19.67;11.03;;;6.10;99.90;;;;;;5094783;28;20315;-68
2022/01/02 07:59:20;;;;;;;19.43;10.57;;;6.10;99.90;;;;;;5094598;28;20226;-68
2022/01/02 08:01:47;;;;;;;21.90;11.53;;;6.10;99.90;;;;;;5106879;28;20208;-67
2022/01/02 08:04:15;;;;;;;21.33;10.70;;;6.10;99.90;;;;;;5094525;28;20645;-68
2022/01/02 08:06:42;;;;;;;25.70;12.77;;;6.10;99.90;;;;;;5094423;28;20304;-68
2022/01/02 08:09:09;;;;;;;25.63;11.23;;;6.10;99.90;;;;;;5094250;28;20705;-67
2022/01/02 08:11:35;;;;;;;19.97;10.80;;;6.20;99.90;;;;;;5094842;28;20215;-68
2022/01/02 08:14:02;;;;;;;24.13;11.63;;;6.20;99.90;;;;;;5093947;28;20203;-67
2022/01/02 08:16:29;;;;;;;19.93;11.30;;;6.30;99.90;;;;;;5094046;28;20339;-68
2022/01/02 08:18:56;;;;;;;23.47;10.57;;;6.20;99.90;;;;;;5093900;28;20201;-67
2022/01/02 08:21:24;;;;;;;24.30;11.57;;;6.20;99.90;;;;;;5095256;28;20746;-73
2022/01/02 08:23:51;;;;;;;25.50;12.40;;;6.30;99.90;;;;;;5095094;28;20205;-73
2022/01/02 08:26:18;;;;;;;24.37;11.83;;;6.20;99.90;;;;;;5094856;28;20241;-75
2022/01/02 08:28:45;;;;;;;24.33;12.13;;;6.20;99.90;;;;;;5094699;28;20244;-75
2022/01/02 08:31:12;;;;;;;22.80;11.90;;;6.30;99.90;;;;;;5095957;28;20208;-73
2022/01/02 08:33:39;;;;;;;22.50;11.37;;;6.30;99.90;;;;;;5094169;28;20209;-76
2022/01/02 08:36:06;;;;;;;20.90;11.63;;;6.30;99.90;;;;;;5094020;28;20307;-74
2022/01/02 08:38:34;;;;;;;22.57;11.07;;;6.40;99.90;;;;;;5095621;28;20211;-75
2022/01/02 08:41:01;;;;;;;23.53;12.97;;;6.40;99.90;;;;;;5095317;28;20196;-74
2022/01/02 08:43:28;;;;;;;21.33;12.07;;;6.40;99.90;;;;;;5096822;28;20289;-76
2022/01/02 08:45:55;;;;;;;27.17;13.20;;;6.40;99.90;;;;;;5095394;28;20257;-73
2022/01/02 08:48:22;;;;;;;25.73;13.03;;;6.50;99.90;;;;;;5091265;28;20205;-71
2022/01/02 08:50:49;;;;;;;24.33;12.33;;;6.50;99.90;;;;;;5084825;28;20250;-71
2022/01/02 08:53:16;;;;;;;28.97;12.43;;;6.50;99.90;;;;;;5102163;28;20204;-67
2022/01/02 08:55:44;;;;;;;25.97;12.97;;;6.60;99.90;;;;;;5093505;28;20220;-74
2022/01/02 08:58:11;;;;;;;24.13;12.80;;;6.60;99.90;;;;;;5093680;28;20547;-69
2022/01/02 09:00:38;;;;;;;26.03;12.70;;;6.70;99.90;;;;;;5093854;28;20291;-70
2022/01/02 09:03:06;;;;;;;26.37;13.50;;;6.70;99.90;;;;;;5106825;28;20218;-71
2022/01/02 09:05:33;;;;;;;26.60;12.40;;;6.80;99.90;;;;;;5093973;28;20281;-70
2022/01/02 09:08:00;;;;;;;24.43;12.47;;;6.80;99.90;;;;;;5094011;28;20208;-68
2022/01/02 09:10:27;;;;;;;27.40;12.50;;;6.80;99.90;;;;;;5096760;28;20210;-70
2022/01/02 09:12:55;;;;;;;25.67;12.97;;;6.90;99.90;;;;;;5092160;28;20212;-71
2022/01/02 09:15:22;;;;;;;24.00;12.93;;;6.90;99.90;;;;;;5093809;28;20625;-71
2022/01/02 09:17:49;;;;;;;23.17;12.10;;;6.90;99.90;;;;;;5081879;28;20233;-71
2022/01/02 09:20:17;;;;;;;23.07;12.13;;;7.00;99.90;;;;;;5091255;28;20205;-70
2022/01/02 09:22:46;;;;;;;23.00;12.00;;;7.00;99.90;;;;;;5086693;28;20205;-72
2022/01/02 09:25:13;;;;;;;25.20;12.70;;;7.00;99.90;;;;;;5091500;28;20201;-72
2022/01/02 09:27:41;;;;;;;25.43;11.90;;;7.10;99.90;;;;;;5093123;28;20204;-71
2022/01/02 09:30:10;;;;;;;25.90;13.07;;;7.10;99.90;;;;;;5092730;28;20254;-69
2022/01/02 09:32:37;;;;;;;24.10;12.87;;;7.10;99.90;;;;;;5093205;28;20219;-71
2022/01/02 09:35:05;;;;;;;25.40;13.50;;;7.20;99.90;;;;;;5092724;28;20204;-71
2022/01/02 09:37:34;;;;;;;25.43;12.20;;;7.20;99.90;;;;;;5094173;28;20224;-72
2022/01/02 09:40:01;;;;;;;27.27;13.27;;;7.20;99.90;;;;;;5092652;28;20212;-72
2022/01/02 09:42:28;;;;;;;23.30;11.23;;;7.30;99.90;;;;;;5088068;28;20252;-71
2022/01/02 09:44:55;;;;;;;27.50;13.03;;;7.30;99.90;;;;;;5092033;28;20201;-69
2022/01/02 09:47:24;;;;;;;24.20;12.97;;;7.30;99.90;;;;;;5092508;28;20232;-70
2022/01/02 09:49:51;;;;;;;24.70;12.80;;;7.40;99.90;;;;;;5090048;28;20653;-72
2022/01/02 09:52:18;;;;;;;24.43;13.27;;;7.40;99.90;;;;;;5091508;28;20203;-72
2022/01/02 09:54:45;;;;;;;28.47;13.37;;;7.40;99.90;;;;;;5091928;28;20582;-70
2022/01/02 09:57:13;;;;;;;25.70;12.83;;;7.50;99.90;;;;;;5090732;28;20228;-67
2022/01/02 09:59:39;;;;;;;24.10;12.90;;;7.50;99.90;;;;;;5091360;28;20250;-71
2022/01/02 10:02:06;;;;;;;24.77;13.00;;;7.50;99.90;;;;;;5091674;28;20215;-67
2022/01/02 10:04:38;;;;;;;25.73;13.40;;;7.60;99.90;;;;;;5082320;28;20208;-71
2022/01/02 10:07:05;;;;;;;25.87;13.17;;;7.60;99.90;;;;;;5090373;28;20201;-68
2022/01/02 10:09:34;;;;;;;25.83;13.33;;;7.60;99.90;;;;;;5091425;28;20208;-69
2022/01/02 10:12:21;;;;;;;24.67;12.73;;;7.70;99.90;;;;;;5090925;28;20209;-69
2022/01/02 10:15:09;;;;;;;25.63;12.30;;;7.70;99.90;;;;;;5081973;28;20208;-72
2022/01/02 10:17:54;;;;;;;24.93;12.70;;;7.70;99.90;;;;;;5083371;28;20229;-72
2022/01/02 10:20:24;;;;;;;25.10;13.40;;;7.80;99.90;;;;;;5089963;28;20261;-67
2022/01/02 10:23:13;;;;;;;24.73;12.93;;;7.80;99.90;;;;;;5091709;28;20210;-71
2022/01/02 10:25:43;;;;;;;27.67;13.73;;;7.80;99.90;;;;;;5088994;28;20215;-69
2022/01/02 10:28:28;;;;;;;27.70;14.10;;;7.80;99.90;;;;;;5087575;28;20215;-70
2022/01/02 10:30:57;;;;;;;25.50;13.07;;;7.80;99.90;;;;;;5088313;28;20211;-73
2022/01/02 10:33:24;;;;;;;26.67;14.17;;;7.80;99.90;;;;;;5091489;28;20215;-70
2022/01/02 10:36:03;;;;;;;29.37;15.20;;;7.90;99.90;;;;;;5091183;28;20291;-72
2022/01/02 10:38:31;;;;;;;26.93;14.60;;;8.00;99.90;;;;;;5091415;28;20208;-73
2022/01/02 10:40:59;;;;;;;26.60;14.40;;;7.90;99.90;;;;;;5091095;28;20650;-73
2022/01/02 10:43:28;;;;;;;24.90;14.37;;;7.90;99.90;;;;;;5092079;28;20204;-74
2022/01/02 10:45:56;;;;;;;27.83;14.33;;;8.00;99.90;;;;;;5091724;28;20197;-70
2022/01/02 10:48:37;;;;;;;26.50;14.53;;;8.10;99.90;;;;;;5091882;28;20297;-70
2022/01/02 10:51:09;;;;;;;26.43;14.73;;;8.10;99.90;;;;;;5087876;28;20215;-69
2022/01/02 10:53:37;;;;;;;29.03;14.13;;;8.20;99.90;;;;;;5088787;28;20204;-69
2022/01/02 10:56:06;;;;;;;28.13;14.80;;;8.20;99.90;;;;;;5088709;28;20211;-70
2022/01/02 10:58:34;;;;;;;29.90;15.10;;;8.20;99.90;;;;;;5087515;28;20206;-69
2022/01/02 11:01:05;;;;;;;30.17;15.70;;;8.30;99.90;;;;;;5088069;28;20211;-68
2022/01/02 11:03:32;;;;;;;27.40;14.50;;;8.30;99.90;;;;;;5088011;28;20205;-69
2022/01/02 11:06:08;;;;;;;28.77;15.00;;;8.40;99.90;;;;;;5079822;28;20197;-70
2022/01/02 11:08:36;;;;;;;29.40;15.33;;;8.40;99.90;;;;;;5089244;28;20201;-69
2022/01/02 11:11:04;;;;;;;27.33;15.30;;;8.30;99.90;;;;;;5090672;28;20303;-66
2022/01/02 11:13:32;;;;;;;32.00;16.23;;;8.40;99.90;;;;;;5092551;28;20209;-69
2022/01/02 11:16:02;;;;;;;29.10;17.17;;;8.50;99.90;;;;;;5090016;28;20528;-68
2022/01/02 11:18:32;;;;;;;30.60;16.23;;;8.50;99.90;;;;;;5091955;28;20229;-69
2022/01/02 11:20:59;;;;;;;25.97;15.43;;;8.50;99.90;;;;;;5085736;28;21012;-68
2022/01/02 11:23:33;;;;;;;30.10;16.23;;;8.50;99.90;;;;;;5091146;28;20205;-69
2022/01/02 11:26:07;;;;;;;30.73;16.70;;;8.60;99.90;;;;;;5091502;28;20216;-69
2022/01/02 11:28:38;;;;;;;28.37;15.37;;;8.60;99.90;;;;;;5091545;28;20704;-71
2022/01/02 11:31:06;;;;;;;26.20;14.77;;;8.70;99.90;;;;;;5091842;28;20211;-69
2022/01/02 11:33:34;;;;;;;27.17;15.70;;;8.70;99.90;;;;;;5091847;28;20319;-69
2022/01/02 11:36:20;;;;;;;26.40;15.97;;;8.80;99.90;;;;;;5088734;28;20205;-70
2022/01/02 11:38:58;;;;;;;24.47;15.50;;;8.80;99.90;;;;;;5094023;28;20610;-70
2022/01/02 11:41:35;;;;;;;26.57;15.43;;;8.80;99.90;;;;;;5093634;28;20196;-70
2022/01/02 11:44:02;;;;;;;29.13;15.37;;;8.90;99.90;;;;;;5093490;28;20210;-70
2022/01/02 11:46:31;;;;;;;26.40;15.20;;;8.90;99.90;;;;;;5089967;28;20317;-70
2022/01/02 11:49:21;;;;;;;28.03;16.50;;;9.00;99.90;;;;;;5094087;28;20231;-72
2022/01/02 11:52:23;;;;;;;25.87;15.10;;;9.10;99.90;;;;;;5089070;28;20566;-72
2022/01/02 11:55:00;;;;;;;24.67;15.73;;;9.10;99.90;;;;;;5088400;28;20204;-70
2022/01/02 11:57:48;;;;;;;25.13;13.73;;;9.20;99.90;;;;;;5095749;28;20325;-70
2022/01/02 12:00:33;;;;;;;25.20;14.30;;;9.30;99.90;;;;;;5089683;28;20304;-70
2022/01/02 12:02:59;;;;;;;21.10;13.07;;;9.40;99.90;;;;;;5095747;28;20192;-73
2022/01/02 12:05:26;;;;;;;25.37;13.83;;;9.40;99.90;;;;;;5096834;28;20741;-72
2022/01/02 12:07:58;;;;;;;20.10;13.87;;;9.50;99.90;;;;;;5096359;28;20204;-73
2022/01/02 12:10:31;;;;;;;20.27;13.30;;;9.50;99.90;;;;;;5094659;28;20208;-70
2022/01/02 12:13:16;;;;;;;28.57;13.93;;;9.50;99.90;;;;;;5094412;28;20295;-70
2022/01/02 12:16:09;;;;;;;19.13;11.97;;;9.60;99.90;;;;;;5094076;28;20570;-70
2022/01/02 12:18:58;;;;;;;20.20;11.83;;;9.60;99.90;;;;;;5088246;28;20247;-71
2022/01/02 12:21:25;;;;;;;20.20;12.10;;;9.70;99.90;;;;;;5093309;28;20291;-71
2022/01/02 12:23:54;;;;;;;19.27;11.60;;;9.70;99.90;;;;;;5093160;28;20216;-70
2022/01/02 12:26:28;;;;;;;17.97;10.90;;;9.80;99.90;;;;;;5092543;28;20227;-71
2022/01/02 12:29:01;;;;;;;19.43;11.40;;;9.70;99.90;;;;;;5092667;28;20232;-71
2022/01/02 12:31:30;;;;;;;18.37;10.67;;;9.80;99.90;;;;;;5093823;28;20200;-71
2022/01/02 12:34:08;;;;;;;18.57;11.23;;;9.90;99.90;;;;;;5093043;28;20209;-71
2022/01/02 12:36:36;;;;;;;18.90;10.97;;;9.80;99.90;;;;;;5093351;28;20205;-69
2022/01/02 12:39:07;;;;;;;17.20;10.63;;;9.90;99.90;;;;;;5093285;28;20689;-71
2022/01/02 12:41:37;;;;;;;18.07;11.07;;;9.90;99.90;;;;;;5093100;28;20565;-70
2022/01/02 12:44:06;;;;;;;18.43;10.27;;;10.00;99.90;;;;;;5093184;28;20304;-70
2022/01/02 12:46:41;;;;;;;20.97;11.17;;;10.00;99.90;;;;;;5092024;28;20208;-72
2022/01/02 12:49:09;;;;;;;17.73;10.73;;;10.00;99.90;;;;;;5092849;28;20291;-72
2022/01/02 12:51:39;;;;;;;20.07;10.97;;;10.00;99.90;;;;;;5092053;28;20204;-72
2022/01/02 12:54:07;;;;;;;18.13;10.50;;;10.10;99.90;;;;;;5092795;28;20204;-71
2022/01/02 12:56:38;;;;;;;16.80;10.23;;;10.10;99.90;;;;;;5092581;28;20220;-72
2022/01/02 12:59:25;;;;;;;20.17;10.67;;;10.10;99.90;;;;;;5092085;28;20215;-75
2022/01/02 13:02:00;;;;;;;19.80;10.60;;;10.10;99.90;;;;;;5091237;28;20963;-69